Estación de Recoleta

Ultimos registro cada 15 minutos 78
Estación Fecha / Hora Temperatura Humedad Lluvia Velocidad Dirección Radiación Presion
78 Recoleta 05-05-2026 19:15 12,4 83,9 0 0 213 0,6 970
77 Recoleta 05-05-2026 19:00 13,1 81,2 0 0 237 0,6 969,5
76 Recoleta 05-05-2026 18:45 13,3 82 0 0 202 0,6 969,5
75 Recoleta 05-05-2026 18:30 12,9 82,3 0 0 171 0,6 969,4
74 Recoleta 05-05-2026 18:15 13,9 77,5 0 0 171 1,9 969
73 Recoleta 05-05-2026 18:00 15,7 72,6 0 0 170 6,9 969,1
72 Recoleta 05-05-2026 17:45 16,4 70,7 0 0,3 187 11,9 969,1
71 Recoleta 05-05-2026 17:30 16,8 69,3 0 0,7 150 18,1 968,9
70 Recoleta 05-05-2026 17:15 18,4 65,4 0 0,7 147 33,1 968,7
69 Recoleta 05-05-2026 17:00 19,1 63,2 0 0,7 135 80,6 968,7
68 Recoleta 05-05-2026 16:45 19,4 62,3 0 1 154 94,4 968,6
67 Recoleta 05-05-2026 16:30 19,8 61,5 0 0,7 140 135,6 968,5
66 Recoleta 05-05-2026 16:15 18,6 64,8 0 1,3 138 124,4 968,3
65 Recoleta 05-05-2026 16:00 18,7 64,1 0 1 135 143,1 968,6
64 Recoleta 05-05-2026 15:45 18,9 62,8 0 1,3 142 171,9 968,7
63 Recoleta 05-05-2026 15:30 19,2 62,1 0 1,3 143 224,4 968,5
62 Recoleta 05-05-2026 15:15 18,8 63,3 0 1,3 143 415,6 968,6
61 Recoleta 05-05-2026 15:00 19,1 62,4 0 1,3 139 255,6 968,6
60 Recoleta 05-05-2026 14:45 19,2 62,3 0 1,7 139 296,9 968,8
59 Recoleta 05-05-2026 14:30 20,4 58,8 0 1,3 133 365,6 968,7
58 Recoleta 05-05-2026 14:15 20,6 58,5 0 1,3 140 278,1 968,9
57 Recoleta 05-05-2026 14:00 20 60,5 0 1,3 133 481,9 969
56 Recoleta 05-05-2026 13:45 19,8 60,8 0 1,3 129 659,4 969,2
55 Recoleta 05-05-2026 13:30 19,8 61 0 1,3 139 668,1 969,1
54 Recoleta 05-05-2026 13:15 19 63,1 0 1 135 560,6 969,3
53 Recoleta 05-05-2026 13:00 19,6 61,1 0 1 139 288,1 969,6
52 Recoleta 05-05-2026 12:45 18,9 63,7 0 1 149 621,9 969,7
51 Recoleta 05-05-2026 12:30 18,6 64,2 0 1 138 626,9 969,8
50 Recoleta 05-05-2026 12:15 18,5 65,7 0 1 118 631,9 969,7
49 Recoleta 05-05-2026 12:00 17,1 69,6 0 1 122 641,9 969,9
48 Recoleta 05-05-2026 11:45 15,1 74,6 0 1 129 193,1 970,1
47 Recoleta 05-05-2026 11:30 15,8 73 0 1,3 129 170,6 970,1
46 Recoleta 05-05-2026 11:15 15,1 75,4 0 1,3 138 599,4 970,3
45 Recoleta 05-05-2026 11:00 15,4 73,2 0 1,3 131 583,1 970,4
44 Recoleta 05-05-2026 10:45 15 73,5 0 1,3 129 550,6 970,5
43 Recoleta 05-05-2026 10:30 14,7 73,1 0 1,3 131 526,9 970,2
42 Recoleta 05-05-2026 10:15 14,9 69,5 0 1 136 498,1 970,2
41 Recoleta 05-05-2026 10:00 15,8 65 0 0,7 122 38,1 969,9
40 Recoleta 05-05-2026 09:45 16,6 62 0 0,3 48 35,6 969,9
39 Recoleta 05-05-2026 09:30 17,5 60 0 0 3 34,4 969,9
38 Recoleta 05-05-2026 09:15 15,2 67,4 0 0 0 356,9 969,9
37 Recoleta 05-05-2026 09:00 13,7 73,1 0 0 358 311,9 970
36 Recoleta 05-05-2026 08:45 14 76,3 0 0 347 266,9 969,9
35 Recoleta 05-05-2026 08:30 11 83,6 0 0 324 23,1 970,2
34 Recoleta 05-05-2026 08:15 10,1 91,1 0 0 307 123,1 970
33 Recoleta 05-05-2026 08:00 9,5 94 0 0 307 70,6 969,8
32 Recoleta 05-05-2026 07:45 8,6 94 0 0 305 20,6 969,5
31 Recoleta 05-05-2026 07:30 8,1 94,9 0 0 300 6,9 969,5
30 Recoleta 05-05-2026 07:15 7,7 94,6 0 0 300 0,6 969,3
29 Recoleta 05-05-2026 07:00 7 94,4 0 0 300 0,6 969,2
28 Recoleta 05-05-2026 06:45 7 94,1 0 0 299 0,6 969,1
27 Recoleta 05-05-2026 06:30 7,3 93,6 0 0 299 0,6 968,8
26 Recoleta 05-05-2026 06:15 7 94,1 0 0 298 0,6 968,8
25 Recoleta 05-05-2026 06:00 7,3 93,4 0 0 298 0,6 968,8
24 Recoleta 05-05-2026 05:45 6,8 92,7 0 0 298 0,6 968,3
23 Recoleta 05-05-2026 05:30 6,9 92,2 0 0 298 0,6 968
22 Recoleta 05-05-2026 05:15 7 91,7 0 0 298 0,6 967,9
21 Recoleta 05-05-2026 05:00 7,3 91,7 0 0 298 0,6 967,9
20 Recoleta 05-05-2026 04:45 7,8 92,2 0 0 298 0,6 967,9
19 Recoleta 05-05-2026 04:30 7,6 92,1 0 0 298 0,6 967,7
18 Recoleta 05-05-2026 04:15 7,8 91,9 0 0 298 0,6 967,4
17 Recoleta 05-05-2026 04:00 7,9 91,5 0 0 298 0,6 967,4
16 Recoleta 05-05-2026 03:45 7,7 90,6 0 0 298 0,6 967,7
15 Recoleta 05-05-2026 03:30 7,9 91,3 0 0 298 0,6 967,8
14 Recoleta 05-05-2026 03:15 8,2 90,8 0 0 298 0,6 968
13 Recoleta 05-05-2026 03:00 8,7 90,6 0 0 298 0,6 968,1
12 Recoleta 05-05-2026 02:45 8,4 90 0 0 298 0,6 967,9
11 Recoleta 05-05-2026 02:30 8,5 88,7 0 0 298 0,6 968,3
10 Recoleta 05-05-2026 02:15 8,7 87,8 0 0 298 0,6 968,7
9 Recoleta 05-05-2026 02:00 9,2 87,5 0 0 298 0,6 968,7
8 Recoleta 05-05-2026 01:45 9,7 86,3 0 0 298 0,6 968,7
7 Recoleta 05-05-2026 01:30 10,8 84,8 0 0 270 0,6 968,8
6 Recoleta 05-05-2026 01:15 9,4 89 0 0 230 0,6 969
5 Recoleta 05-05-2026 01:00 9,6 88,2 0 0 230 0,6 969,1
4 Recoleta 05-05-2026 00:45 9,8 87,3 0 0 230 0,6 969,3
3 Recoleta 05-05-2026 00:30 9,9 87,6 0 0 230 0,6 969,5
2 Recoleta 05-05-2026 00:15 10 86,9 0 0 230 0,6 969,5
1 Recoleta 05-05-2026 00:00 10 86,1 0 0 230 0,6 969,5